Time;durP1;ratioP1;P1;durP2;ratioP2;P2;SDS_P1;SDS_P2;PMS_P1;PMS_P2;Temp;Humidity;BMP_temperature;BMP_pressure;BME280_temperature;BME280_humidity;BME280_pressure;Samples;Min_cycle;Max_cycle;Signal;HPM_P1;HPM_P2
2023/10/16 00:01:05;;;;;;;;;1.00;1.00;;;;;8.67;88.98;102366.22;4992302;28;10636;-69
2023/10/16 00:03:32;;;;;;;;;2.00;1.00;;;;;8.68;89.65;102359.03;4981797;28;10478;-69
2023/10/16 00:05:59;;;;;;;;;2.00;1.50;;;;;8.68;89.27;102359.88;4984507;28;10745;-69
2023/10/16 00:08:25;;;;;;;;;1.00;1.00;;;;;8.67;89.15;102366.22;4996896;28;10623;-69
2023/10/16 00:11:01;;;;;;;;;1.50;1.00;;;;;8.68;88.89;102359.03;4991241;28;10404;-69
2023/10/16 00:13:27;;;;;;;;;1.25;0.25;;;;;8.65;88.67;102355.63;4992318;28;10502;-69
2023/10/16 00:15:56;;;;;;;;;1.25;1.00;;;;;8.65;89.09;102358.31;5002471;28;10536;-69
2023/10/16 00:18:24;;;;;;;;;1.75;1.75;;;;;8.65;89.38;102352.09;4978718;28;11488;-69
2023/10/16 00:20:55;;;;;;;;;1.00;1.00;;;;;8.66;88.93;102353.78;4989510;28;10576;-69
2023/10/16 00:23:25;;;;;;;;;2.00;1.00;;;;;8.65;88.94;102360.13;4991183;28;10568;-69
2023/10/16 00:25:52;;;;;;;;;0.75;0.75;;;;;8.63;88.84;102362.13;4973544;28;10550;-69
2023/10/16 00:28:21;;;;;;;;;1.25;1.25;;;;;8.62;89.03;102360.41;4991051;28;10705;-68
2023/10/16 00:30:49;;;;;;;;;1.25;1.25;;;;;8.62;88.70;102371.16;4986886;28;10652;-68
2023/10/16 00:33:16;;;;;;;;;1.00;1.00;;;;;8.61;88.75;102374.84;4976789;28;10965;-69
2023/10/16 00:35:45;;;;;;;;;1.00;1.00;;;;;8.62;89.14;102369.31;4973487;28;10623;-71
2023/10/16 00:38:13;;;;;;;;;2.75;2.75;;;;;8.65;89.41;102376.25;4973131;28;10559;-69
2023/10/16 00:43:32;;;;;;;;;1.00;1.00;;;;;8.69;89.47;102371.44;4985697;28;10539;-69
2023/10/16 00:46:08;;;;;;;;;2.50;2.00;;;;;8.69;88.93;102376.81;4989966;28;10548;-69
2023/10/16 00:48:39;;;;;;;;;2.00;1.00;;;;;8.71;89.30;102373.00;4973223;28;10682;-69
2023/10/16 00:51:09;;;;;;;;;2.00;1.00;;;;;8.72;88.97;102380.06;4972950;28;10649;-69
2023/10/16 00:53:38;;;;;;;;;1.00;0.75;;;;;8.74;89.10;102386.13;4973155;28;10618;-68
2023/10/16 00:56:14;;;;;;;;;0.25;0.25;;;;;8.76;89.11;102383.31;4977543;28;10585;-69
2023/10/16 00:58:42;;;;;;;;;2.50;1.00;;;;;8.75;89.06;102381.59;4990693;28;10626;-69
2023/10/16 01:01:12;;;;;;;;;2.00;1.00;;;;;8.74;88.75;102380.75;4994684;28;10612;-69
2023/10/16 01:03:42;;;;;;;;;0.50;0.50;;;;;8.73;88.81;102372.84;4979022;28;10511;-68
2023/10/16 01:06:16;;;;;;;;;1.00;1.00;;;;;8.73;89.12;102368.31;4972587;28;10574;-68
2023/10/16 01:08:45;;;;;;;;;1.25;0.25;;;;;8.73;89.85;102357.59;4973612;28;10560;-69
2023/10/16 01:11:14;;;;;;;;;0.50;0.50;;;;;8.74;89.22;102358.44;4989073;28;11392;-69
2023/10/16 01:13:41;;;;;;;;;1.00;1.00;;;;;8.66;89.57;102353.78;4993049;28;11355;-69
2023/10/16 01:16:09;;;;;;;;;1.25;1.25;;;;;8.57;89.79;102349.28;4987106;28;10700;-68
2023/10/16 01:18:37;;;;;;;;;2.50;1.50;;;;;8.56;89.49;102351.13;4994242;28;10617;-69
2023/10/16 01:21:08;;;;;;;;;2.00;2.00;;;;;8.54;89.76;102336.13;4989180;28;11445;-69
2023/10/16 01:23:35;;;;;;;;;0.25;0.25;;;;;8.50;90.14;102337.41;4972775;28;10689;-69
2023/10/16 01:26:02;;;;;;;;;2.00;2.00;;;;;8.52;90.43;102343.50;4956641;28;10624;-69
2023/10/16 01:28:30;;;;;;;;;1.00;0.25;;;;;8.56;90.54;102342.22;4972595;28;10882;-69
2023/10/16 01:30:56;;;;;;;;;1.00;1.00;;;;;8.59;90.62;102350.00;4972723;28;10639;-69
2023/10/16 01:33:23;;;;;;;;;1.50;1.00;;;;;8.60;90.45;102347.16;4974860;28;11401;-69
2023/10/16 01:35:50;;;;;;;;;2.00;1.00;;;;;8.62;90.46;102344.31;4976138;28;10614;-69
2023/10/16 01:38:18;;;;;;;;;1.00;1.00;;;;;8.60;90.58;102332.91;4972373;28;10632;-69
2023/10/16 01:41:02;;;;;;;;;1.00;1.00;;;;;8.61;90.14;102348.00;4980158;28;10667;-69
2023/10/16 01:43:29;;;;;;;;;2.50;0.00;;;;;8.63;90.24;102359.47;4983342;28;10615;-69
2023/10/16 01:46:20;;;;;;;;;0.00;0.00;;;;;8.68;90.51;102359.88;4990652;28;10663;-69
2023/10/16 01:48:49;;;;;;;;;0.25;0.00;;;;;8.72;90.20;102366.63;4985329;28;10760;-69
2023/10/16 01:51:19;;;;;;;;;2.00;0.00;;;;;8.75;90.42;102371.72;4968501;28;10592;-69
2023/10/16 01:53:51;;;;;;;;;0.00;0.00;;;;;8.75;90.05;102363.66;4992721;28;10526;-69
2023/10/16 01:56:21;;;;;;;;;1.00;1.00;;;;;8.75;90.27;102363.66;4993565;28;10467;-69
2023/10/16 01:58:52;;;;;;;;;2.00;2.00;;;;;8.74;90.20;102359.25;4992594;28;10624;-69
2023/10/16 02:01:20;;;;;;;;;1.00;0.75;;;;;8.75;90.09;102357.44;4983522;28;10582;-69
2023/10/16 02:03:49;;;;;;;;;0.00;0.00;;;;;8.74;90.01;102348.53;4976432;28;10672;-69
2023/10/16 02:06:17;;;;;;;;;0.00;0.00;;;;;8.73;89.98;102356.75;4975645;28;10567;-69
2023/10/16 02:08:46;;;;;;;;;2.00;0.50;;;;;8.75;90.56;102352.06;4976152;28;11067;-69
2023/10/16 02:11:16;;;;;;;;;0.50;0.00;;;;;8.74;90.45;102343.16;4993274;28;10389;-69
2023/10/16 02:13:43;;;;;;;;;1.25;1.25;;;;;8.75;90.57;102344.88;4976003;28;10480;-69
2023/10/16 02:16:12;;;;;;;;;0.25;0.25;;;;;8.72;90.62;102338.94;4975579;28;10715;-69
2023/10/16 02:18:45;;;;;;;;;0.00;0.00;;;;;8.71;90.64;102348.84;4989566;28;10580;-69
2023/10/16 02:21:13;;;;;;;;;0.50;0.50;;;;;8.69;90.64;102339.22;4975804;28;10791;-69
2023/10/16 02:23:46;;;;;;;;;0.75;0.50;;;;;8.69;90.83;102342.75;4978280;28;10645;-69
2023/10/16 02:26:18;;;;;;;;;3.00;0.00;;;;;8.71;90.88;102351.53;4989314;28;10517;-69
2023/10/16 02:28:49;;;;;;;;;1.00;0.00;;;;;8.74;91.19;102342.31;4956943;28;10534;-69
2023/10/16 02:31:18;;;;;;;;;2.00;0.25;;;;;8.76;90.83;102346.56;4959102;28;10573;-69
2023/10/16 02:33:50;;;;;;;;;1.25;1.25;;;;;8.78;91.16;102343.72;4993151;28;10534;-69
2023/10/16 02:36:21;;;;;;;;;0.00;0.00;;;;;8.77;90.80;102337.50;4975368;28;10661;-69
2023/10/16 02:38:48;;;;;;;;;0.00;0.00;;;;;8.76;90.65;102333.13;4993279;28;10515;-69
2023/10/16 02:41:16;;;;;;;;;0.00;0.00;;;;;8.76;91.10;102343.88;4993060;28;10418;-69
2023/10/16 02:43:45;;;;;;;;;1.00;0.00;;;;;8.76;90.96;102338.50;4957540;28;10585;-69
2023/10/16 02:46:18;;;;;;;;;2.25;0.00;;;;;8.77;90.67;102324.06;4994073;28;10822;-69
2023/10/16 02:48:44;;;;;;;;;0.50;0.00;;;;;8.78;91.07;102332.97;4978743;28;10318;-69
2023/10/16 02:51:16;;;;;;;;;0.00;0.00;;;;;8.78;90.62;102324.91;4993261;28;10673;-69
2023/10/16 02:53:43;;;;;;;;;2.00;0.00;;;;;8.75;90.46;102323.41;4988654;28;11054;-69
2023/10/16 02:58:46;;;;;;;;;1.00;0.75;;;;;8.73;90.67;102319.16;4990746;28;10621;-69
2023/10/16 03:01:15;;;;;;;;;0.00;0.00;;;;;8.74;90.94;102327.06;4991656;28;10480;-69
2023/10/16 03:03:43;;;;;;;;;0.00;0.00;;;;;8.71;90.76;102319.31;4991834;28;11361;-69
2023/10/16 03:06:10;;;;;;;;;0.00;0.00;;;;;8.72;90.83;102323.69;4962965;28;10562;-69
2023/10/16 03:08:37;;;;;;;;;0.00;0.00;;;;;8.72;91.09;102328.22;4992162;28;11231;-70
2023/10/16 03:11:06;;;;;;;;;1.00;1.00;;;;;8.73;90.52;102335.25;4983978;28;11279;-69
2023/10/16 03:13:36;;;;;;;;;0.25;0.25;;;;;8.74;90.77;102337.78;4975885;28;10614;-69
2023/10/16 03:16:18;;;;;;;;;1.00;1.00;;;;;8.75;91.32;102334.13;4975474;28;10565;-69
2023/10/16 03:18:47;;;;;;;;;1.25;0.25;;;;;8.76;90.83;102327.75;4991228;28;10531;-69
2023/10/16 03:23:44;;;;;;;;;0.00;0.00;;;;;8.79;90.96;102326.59;4975015;28;10474;-69
2023/10/16 03:26:30;;;;;;;;;0.25;0.25;;;;;8.78;90.48;102330.28;4992018;28;10391;-69
2023/10/16 03:29:00;;;;;;;;;0.00;0.00;;;;;8.77;91.21;102320.56;4974940;28;10612;-69
2023/10/16 03:31:30;;;;;;;;;1.25;1.00;;;;;8.77;90.75;102316.03;4967164;28;10499;-69
2023/10/16 03:33:57;;;;;;;;;0.75;0.75;;;;;8.78;90.80;102328.44;4983942;28;10474;-69
2023/10/16 03:36:23;;;;;;;;;0.25;0.00;;;;;8.78;91.27;102315.03;4974357;28;10554;-69
2023/10/16 03:38:53;;;;;;;;;1.50;0.75;;;;;8.76;91.09;102311.66;4992211;28;10639;-69
2023/10/16 03:41:28;;;;;;;;;1.50;1.00;;;;;8.74;90.53;102304.72;4974750;28;11127;-69
2023/10/16 03:43:58;;;;;;;;;0.75;0.75;;;;;8.70;91.19;102306.84;4990220;28;10493;-69
2023/10/16 03:46:28;;;;;;;;;3.00;1.00;;;;;8.72;91.02;102304.03;4983891;28;10404;-69
2023/10/16 03:48:56;;;;;;;;;0.00;0.00;;;;;8.75;91.22;102311.78;4971395;28;10577;-69
2023/10/16 03:51:24;;;;;;;;;1.25;1.25;;;;;8.75;91.11;102311.78;4991611;28;10541;-69
2023/10/16 03:53:52;;;;;;;;;0.25;0.00;;;;;8.75;91.19;102304.59;4974173;28;10603;-69
2023/10/16 03:56:20;;;;;;;;;0.00;0.00;;;;;8.74;91.25;102310.94;4974158;28;10479;-69
2023/10/16 03:58:47;;;;;;;;;0.50;0.00;;;;;8.75;91.17;102309.09;4972303;28;10842;-69
2023/10/16 04:01:21;;;;;;;;;1.00;0.00;;;;;8.76;91.32;102306.28;5005275;23;10524;-66
2023/10/16 04:03:50;;;;;;;;;1.00;1.00;;;;;8.77;91.56;102301.75;4981318;28;10377;-66
2023/10/16 04:06:20;;;;;;;;;1.00;1.00;;;;;8.75;91.01;102299.22;4991628;28;10612;-65
2023/10/16 04:08:47;;;;;;;;;1.00;1.00;;;;;8.68;91.46;102290.06;4990879;28;11303;-66
2023/10/16 04:11:18;;;;;;;;;0.75;0.75;;;;;8.68;90.96;102290.06;5003421;28;10756;-66
2023/10/16 04:13:47;;;;;;;;;1.00;1.00;;;;;8.72;91.37;102296.00;4966714;28;10630;-66
2023/10/16 04:16:43;;;;;;;;;1.00;1.00;;;;;8.75;91.28;102296.53;4969434;28;10455;-65
2023/10/16 04:21:45;;;;;;;;;1.00;1.00;;;;;8.80;90.90;102302.31;4971767;28;10720;-66
2023/10/16 04:30:32;;;;;;;;;1.25;1.25;;;;;8.78;91.29;102290.84;4970602;28;10684;-66
2023/10/16 04:33:13;;;;;;;;;0.50;0.50;;;;;8.81;91.73;102297.78;4971636;28;10574;-66
2023/10/16 04:46:54;;;;;;;;;1.50;1.50;;;;;8.87;91.48;102291.81;4973628;28;10530;-66
2023/10/16 04:49:16;;;;;;;;;1.50;1.00;;;;;8.87;90.91;102289.13;4971616;28;10590;-66
2023/10/16 04:51:52;;;;;;;;;1.00;1.00;;;;;8.90;90.96;102302.25;4972257;28;10583;-66
2023/10/16 04:54:53;;;;;;;;;1.00;1.00;;;;;8.90;90.95;102292.38;4974036;28;11202;-66
2023/10/16 05:00:00;;;;;;;;;3.25;2.00;;;;;8.90;91.27;102291.53;4971177;28;10625;-66
2023/10/16 05:02:33;;;;;;;;;2.00;2.00;;;;;8.90;91.27;102291.53;4973611;28;11248;-65
2023/10/16 05:07:53;;;;;;;;;1.25;1.25;;;;;8.91;90.58;102286.03;4971291;28;11278;-66
2023/10/16 05:13:39;;;;;;;;;5.00;3.00;;;;;8.89;90.97;102282.63;4969503;28;10608;-66
2023/10/16 05:19:02;;;;;;;;;2.00;2.00;;;;;8.87;91.09;102286.44;4969844;28;10696;-66
2023/10/16 06:16:28;;;;;;;;;2.75;2.75;;;;;8.93;92.06;102283.19;4975131;28;11416;-65
2023/10/16 06:18:55;;;;;;;;;3.50;3.50;;;;;8.95;91.92;102280.34;4970350;28;10670;-66
2023/10/16 06:21:22;;;;;;;;;5.00;5.00;;;;;8.96;92.10;102276.69;4968838;28;10717;-66
2023/10/16 06:23:48;;;;;;;;;5.50;3.50;;;;;8.99;92.07;102282.56;4979407;28;10878;-65
2023/10/16 06:26:16;;;;;;;;;6.75;5.25;;;;;9.01;91.92;102285.13;4969364;28;10709;-66
2023/10/16 06:28:49;;;;;;;;;3.00;2.00;;;;;9.03;92.01;102273.22;4972670;28;10694;-65
2023/10/16 06:31:22;;;;;;;;;6.75;3.00;;;;;9.05;91.64;102273.09;4961631;28;10463;-68
2023/10/16 06:33:56;;;;;;;;;6.00;4.50;;;;;9.02;91.94;102274.22;4972895;28;10711;-64
2023/10/16 06:36:28;;;;;;;;;4.50;4.50;;;;;9.02;92.04;102276.91;4972366;28;10619;-65
2023/10/16 06:38:55;;;;;;;;;5.00;5.00;;;;;9.04;92.09;102290.22;4979578;28;10687;-68
2023/10/16 06:41:22;;;;;;;;;5.00;5.00;;;;;9.05;91.64;102290.06;4972188;28;10755;-65
2023/10/16 06:43:49;;;;;;;;;3.00;3.00;;;;;9.08;92.20;102294.28;4970878;28;10925;-68
2023/10/16 06:46:25;;;;;;;;;5.25;5.00;;;;;9.27;96.44;102283.41;4970839;28;10699;-65
2023/10/16 06:48:53;;;;;;;;;5.00;5.00;;;;;9.37;93.65;102286.91;4979061;28;10670;-65
2023/10/16 06:51:26;;;;;;;;;5.25;3.00;;;;;9.32;92.57;102283.84;4976736;28;10625;-66
2023/10/16 06:53:56;;;;;;;;;5.75;5.00;;;;;9.27;92.21;102277.19;4978473;28;10732;-69
2023/10/16 06:56:34;;;;;;;;;5.00;5.00;;;;;9.20;92.13;102282.34;4973147;28;10668;-66
2023/10/16 06:59:00;;;;;;;;;6.75;6.25;;;;;9.21;92.47;102285.88;4978437;28;10626;-68
2023/10/16 07:01:27;;;;;;;;;3.50;3.00;;;;;9.22;92.72;102284.88;4967462;28;10532;-65
2023/10/16 07:03:54;;;;;;;;;4.00;4.00;;;;;9.24;92.61;102291.81;4973759;28;10660;-65
2023/10/16 07:06:32;;;;;;;;;5.00;3.00;;;;;9.25;92.34;102288.13;4967284;28;10495;-66
2023/10/16 07:09:06;;;;;;;;;3.50;2.75;;;;;9.25;92.37;102293.47;4974736;28;10427;-65
2023/10/16 07:11:33;;;;;;;;;5.00;5.00;;;;;9.21;92.49;102299.31;4955123;28;10554;-67
2023/10/16 07:13:59;;;;;;;;;3.50;3.50;;;;;9.21;92.21;102300.16;4970683;28;10845;-66
2023/10/16 07:16:26;;;;;;;;;4.00;4.00;;;;;9.21;91.99;102299.31;4971488;28;10703;-65
2023/10/16 07:18:57;;;;;;;;;3.00;3.00;;;;;9.20;92.48;102301.16;4971840;28;10689;-66
2023/10/16 07:21:25;;;;;;;;;2.00;2.00;;;;;9.22;92.20;102298.31;4970022;28;10686;-66
2023/10/16 07:23:53;;;;;;;;;5.00;3.00;;;;;9.24;92.32;102294.50;4969942;28;10634;-66
2023/10/16 07:26:24;;;;;;;;;4.75;2.50;;;;;9.28;92.59;102298.56;4971036;28;10599;-65
2023/10/16 07:28:51;;;;;;;;;4.00;4.00;;;;;9.30;92.77;102291.19;4976629;28;10741;-66
2023/10/16 07:31:19;;;;;;;;;3.00;3.00;;;;;9.35;92.64;102298.78;4971117;28;11217;-65
2023/10/16 07:33:50;;;;;;;;;5.25;3.00;;;;;9.37;92.27;102296.81;4977065;28;10662;-65
2023/10/16 07:36:17;;;;;;;;;3.50;3.50;;;;;9.39;92.39;102292.97;4975555;28;10588;-66
2023/10/16 07:38:44;;;;;;;;;3.50;3.50;;;;;9.43;92.71;102292.66;4974564;28;11313;-67
2023/10/16 07:41:13;;;;;;;;;2.00;2.00;;;;;9.47;92.59;102294.06;4970681;28;10554;-67
2023/10/16 07:43:45;;;;;;;;;2.75;2.75;;;;;9.50;92.66;102291.91;4972071;28;10475;-68
2023/10/16 07:48:51;;;;;;;;;3.00;2.00;;;;;9.53;92.45;102288.09;4972299;28;10575;-67
2023/10/16 07:51:20;;;;;;;;;5.50;3.75;;;;;9.53;92.73;102288.94;4969297;28;11396;-68
2023/10/16 07:53:48;;;;;;;;;3.00;3.00;;;;;9.55;92.86;102286.91;4971796;28;10591;-68
2023/10/16 07:59:06;;;;;;;;;2.25;2.25;;;;;9.62;92.35;102301.44;4972719;28;11271;-68
2023/10/16 08:01:45;;;;;;;;;6.25;3.50;;;;;9.66;92.72;102307.38;4971016;28;10554;-68
2023/10/16 08:04:19;;;;;;;;;2.75;2.50;;;;;9.67;92.88;102301.00;4972312;28;10635;-67
2023/10/16 08:06:47;;;;;;;;;3.50;3.00;;;;;9.72;92.63;102303.22;4973941;28;11465;-68
2023/10/16 08:11:53;;;;;;;;;3.50;2.25;;;;;9.80;nan;102306.00;4970831;28;10401;-68
2023/10/16 08:14:19;;;;;;;;;2.00;2.00;;;;;9.82;93.02;102310.22;4972476;28;10460;-67
2023/10/16 08:16:46;;;;;;;;;3.25;2.00;;;;;9.86;93.08;102308.91;4968363;28;10450;-66
2023/10/16 08:19:15;;;;;;;;;1.00;1.00;;;;;9.88;92.93;102306.06;4972200;28;10404;-66
2023/10/16 08:21:42;;;;;;;;;3.00;3.00;;;;;9.90;92.76;102310.31;4969345;28;10478;-66
2023/10/16 08:24:16;;;;;;;;;2.00;2.00;;;;;9.97;92.69;102309.69;4970262;28;10576;-67
2023/10/16 08:26:43;;;;;;;;;1.00;1.00;;;;;10.00;92.87;102310.22;4969426;28;10344;-67
2023/10/16 08:29:19;;;;;;;;;2.00;2.00;;;;;10.04;92.69;102305.38;4978097;28;10323;-66
2023/10/16 08:32:27;;;;;;;;;1.00;1.00;;;;;10.08;92.67;102298.69;4972306;28;10294;-66
2023/10/16 08:34:35;;;;;;;;;3.00;2.00;;;;;10.12;92.62;102305.44;4970443;28;10399;-66
2023/10/16 08:37:04;;;;;;;;;2.00;2.00;;;;;10.16;92.57;102304.13;4968904;28;10515;-66
2023/10/16 08:39:36;;;;;;;;;2.00;1.00;;;;;10.20;92.37;102301.97;4969976;28;10377;-66
2023/10/16 08:42:18;;;;;;;;;2.00;2.00;;;;;10.24;92.52;102295.28;4966852;28;10432;-66
2023/10/16 08:44:51;;;;;;;;;1.50;1.50;;;;;10.27;92.38;102301.22;4977171;28;10146;-66
2023/10/16 08:47:26;;;;;;;;;1.00;1.00;;;;;10.32;92.48;102306.97;4973220;28;10465;-67
2023/10/16 08:49:55;;;;;;;;;1.75;1.75;;;;;10.33;92.24;102303.31;4969866;28;10319;-69
2023/10/16 08:52:34;;;;;;;;;2.75;2.75;;;;;10.32;92.16;102300.75;4971245;28;10281;-70
2023/10/16 08:55:14;;;;;;;;;3.50;1.50;;;;;10.32;92.35;102303.44;4981183;28;10327;-69
2023/10/16 08:57:42;;;;;;;;;1.25;1.25;;;;;10.37;92.29;102309.19;4965477;28;10378;-68
2023/10/16 09:00:19;;;;;;;;;1.75;1.75;;;;;10.40;91.96;102304.34;4961898;28;10246;-69
2023/10/16 09:02:51;;;;;;;;;1.50;1.00;;;;;10.44;91.74;102304.03;4965102;28;10101;-68
2023/10/16 09:05:20;;;;;;;;;2.00;2.00;;;;;10.44;91.96;102299.50;4953707;28;10251;-68
2023/10/16 09:07:51;;;;;;;;;2.00;1.50;;;;;10.49;91.61;102299.03;4970651;28;10334;-67
2023/10/16 09:10:21;;;;;;;;;1.00;1.00;;;;;10.52;91.34;102298.72;4968178;28;10169;-65
2023/10/16 09:13:04;;;;;;;;;1.00;1.00;;;;;10.57;91.40;102302.63;4971247;28;10149;-65
2023/10/16 09:15:30;;;;;;;;;2.00;2.00;;;;;10.60;91.28;102298.75;4971665;28;10158;-67
2023/10/16 09:17:57;;;;;;;;;1.75;1.00;;;;;10.63;91.24;102290.38;4970808;28;10280;-68
2023/10/16 09:20:33;;;;;;;;;2.25;1.00;;;;;10.66;90.79;102290.06;4975264;28;10205;-67
2023/10/16 09:23:05;;;;;;;;;2.00;2.00;;;;;10.65;90.87;102296.44;4977287;28;10303;-70
2023/10/16 09:25:32;;;;;;;;;1.00;1.00;;;;;10.70;90.99;102290.59;4971392;28;10178;-67
2023/10/16 09:28:05;;;;;;;;;2.00;2.00;;;;;10.71;90.85;102297.66;4969869;28;10142;-67
2023/10/16 09:30:33;;;;;;;;;2.00;0.25;;;;;10.76;90.67;102295.31;4972361;28;10293;-68
2023/10/16 09:33:00;;;;;;;;;0.75;0.75;;;;;10.79;90.58;102306.63;4971269;28;10088;-67
2023/10/16 09:35:30;;;;;;;;;2.00;1.00;;;;;10.76;90.60;102301.56;4969299;28;10054;-68
2023/10/16 09:38:23;;;;;;;;;1.00;1.00;;;;;10.74;90.19;102302.75;4970036;28;10824;-69
2023/10/16 09:43:56;;;;;;;;;2.00;1.25;;;;;10.80;90.20;102304.78;4968008;28;10029;-67
2023/10/16 09:49:13;;;;;;;;;1.00;1.00;;;;;10.81;89.71;102298.38;4967860;28;9933;-67
2023/10/16 09:51:40;;;;;;;;;3.00;2.00;;;;;10.75;89.96;102302.56;4970228;28;10748;-67
2023/10/16 09:54:21;;;;;;;;;1.00;1.00;;;;;10.79;90.13;102301.25;4950394;28;10174;-68
2023/10/16 09:56:58;;;;;;;;;0.00;0.00;;;;;10.88;89.57;102300.28;4972978;28;9993;-67
2023/10/16 09:59:33;;;;;;;;;0.00;0.00;;;;;10.93;89.05;102297.09;4972214;28;10011;-68
2023/10/16 10:02:08;;;;;;;;;0.50;0.50;;;;;10.96;89.35;102299.47;4995870;23;9943;-69
2023/10/16 10:04:40;;;;;;;;;0.75;0.75;;;;;11.00;88.94;102306.22;5011493;28;9910;-69
2023/10/16 10:07:18;;;;;;;;;1.00;1.00;;;;;10.96;88.71;102302.16;5031553;28;9915;-69
2023/10/16 10:09:48;;;;;;;;;2.00;2.00;;;;;10.96;88.80;102309.41;5011740;28;9935;-69
2023/10/16 10:12:29;;;;;;;;;0.75;0.50;;;;;11.05;88.36;102303.88;4995977;28;10022;-70
2023/10/16 10:15:12;;;;;;;;;0.75;0.75;;;;;11.10;88.05;102298.88;4998142;28;9939;-69
2023/10/16 10:17:41;;;;;;;;;0.50;0.50;;;;;11.12;87.94;102304.09;5010012;28;9948;-69
2023/10/16 10:20:09;;;;;;;;;0.75;0.75;;;;;11.17;87.73;102300.91;4996743;28;9802;-69
2023/10/16 10:22:36;;;;;;;;;0.75;0.75;;;;;11.23;87.47;102308.38;5011879;28;9770;-69
2023/10/16 10:25:09;;;;;;;;;1.50;0.00;;;;;11.27;87.41;102301.63;5011548;28;9999;-69
2023/10/16 10:27:45;;;;;;;;;0.00;0.00;;;;;11.30;87.07;102306.69;4995328;28;9780;-69
2023/10/16 10:30:19;;;;;;;;;0.00;0.00;;;;;11.35;86.60;102307.91;5019783;28;9936;-68
2023/10/16 10:32:57;;;;;;;;;0.00;0.00;;;;;11.31;85.80;102317.31;5033033;28;10421;-69
2023/10/16 10:35:28;;;;;;;;;0.00;0.00;;;;;11.30;85.72;102312.06;5014722;28;10385;-69
2023/10/16 10:38:21;;;;;;;;;0.00;0.00;;;;;11.31;85.70;102311.94;5008469;28;9842;-70
2023/10/16 10:41:06;;;;;;;;;0.00;0.00;;;;;11.28;85.39;102312.25;4994747;28;9630;-69
2023/10/16 10:43:46;;;;;;;;;0.00;0.00;;;;;11.25;85.31;102309.88;5012794;28;9715;-69
2023/10/16 10:46:22;;;;;;;;;0.00;0.00;;;;;11.23;85.09;102314.59;5012408;28;9883;-69
2023/10/16 10:48:49;;;;;;;;;0.00;0.00;;;;;11.21;84.63;102321.97;4992895;28;9754;-69
2023/10/16 10:51:16;;;;;;;;;0.00;0.00;;;;;11.21;84.27;102313.91;4998074;28;9710;-69
2023/10/16 10:53:53;;;;;;;;;1.50;0.00;;;;;11.20;84.57;102314.91;4994691;28;9878;-69
2023/10/16 10:56:23;;;;;;;;;0.00;0.00;;;;;11.16;84.82;102310.84;5018588;28;9836;-70
2023/10/16 10:58:49;;;;;;;;;0.00;0.00;;;;;11.15;85.00;102314.56;5009845;28;9848;-70
2023/10/16 11:01:16;;;;;;;;;0.00;0.00;;;;;11.16;85.09;102316.25;5006465;28;9762;-67
2023/10/16 11:03:48;;;;;;;;;0.50;0.25;;;;;11.18;85.65;102311.56;5019388;28;9865;-69
2023/10/16 11:06:19;;;;;;;;;0.00;0.00;;;;;11.18;85.26;102318.75;5014837;28;9799;-70
2023/10/16 11:08:49;;;;;;;;;0.75;0.00;;;;;11.10;85.33;102306.97;4992708;28;9685;-69
2023/10/16 11:11:16;;;;;;;;;2.00;0.00;;;;;11.09;85.92;102309.81;4992532;28;9749;-68
2023/10/16 11:13:49;;;;;;;;;0.50;0.50;;;;;11.10;85.97;102309.66;5012308;28;9826;-68
2023/10/16 11:16:15;;;;;;;;;0.00;0.00;;;;;11.11;86.29;102310.50;4993838;28;9846;-68
2023/10/16 11:19:08;;;;;;;;;0.25;0.25;;;;;11.14;86.72;102302.09;5011714;28;9864;-68
2023/10/16 11:21:45;;;;;;;;;0.25;0.25;;;;;11.15;86.98;102303.78;5027824;28;9951;-68
2023/10/16 11:24:13;;;;;;;;;0.00;0.00;;;;;11.18;87.03;102294.50;5032187;28;9786;-69
2023/10/16 11:26:42;;;;;;;;;0.75;0.75;;;;;11.16;86.31;102293.84;5031862;28;9926;-68
2023/10/16 11:29:12;;;;;;;;;0.00;0.00;;;;;11.15;86.63;102290.31;5006404;28;9926;-66
2023/10/16 11:31:44;;;;;;;;;0.00;0.00;;;;;11.18;86.39;102295.38;5027356;28;9846;-66
2023/10/16 11:34:13;;;;;;;;;0.00;0.00;;;;;11.19;86.07;102290.81;4999260;28;9862;-66
2023/10/16 11:36:40;;;;;;;;;0.00;0.00;;;;;11.22;86.02;102291.34;5025992;28;9865;-67
2023/10/16 11:39:19;;;;;;;;;0.00;0.00;;;;;11.23;85.65;102287.63;5004088;28;9934;-66
2023/10/16 11:41:47;;;;;;;;;0.00;0.00;;;;;11.26;85.64;102281.06;5010698;28;10550;-67
2023/10/16 11:44:15;;;;;;;;;0.00;0.00;;;;;11.30;85.12;102280.59;4994251;28;9770;-68
2023/10/16 11:46:55;;;;;;;;;0.00;0.00;;;;;11.38;85.06;102274.34;4993651;28;9770;-67
2023/10/16 11:49:22;;;;;;;;;0.00;0.00;;;;;11.36;85.00;102279.91;5006910;28;9714;-67
2023/10/16 11:51:51;;;;;;;;;0.50;0.00;;;;;11.38;84.14;102264.44;4991805;28;9852;-67
2023/10/16 11:54:20;;;;;;;;;0.00;0.00;;;;;11.41;83.16;102270.50;5011283;28;9764;-66
2023/10/16 11:56:53;;;;;;;;;0.00;0.00;;;;;11.40;82.46;102266.97;4990170;28;9783;-67
2023/10/16 11:59:26;;;;;;;;;0.00;0.00;;;;;11.46;81.68;102265.44;4991982;28;9990;-67
2023/10/16 12:01:59;;;;;;;;;0.00;0.00;;;;;11.48;81.02;102268.84;5007486;28;9706;-68
2023/10/16 12:04:30;;;;;;;;;0.75;0.00;;;;;11.49;79.42;102270.50;5003105;28;10040;-68
2023/10/16 12:06:58;;;;;;;;;1.75;0.00;;;;;11.50;77.17;102264.09;5008579;28;9782;-67
2023/10/16 12:09:27;;;;;;;;;1.00;1.00;;;;;11.50;77.03;102267.66;5003508;28;9848;-66
2023/10/16 12:11:54;;;;;;;;;0.00;0.00;;;;;11.55;76.13;102269.88;5014898;28;9777;-66
2023/10/16 12:14:22;;;;;;;;;0.00;0.00;;;;;11.54;76.59;102260.91;5010785;28;10794;-67
2023/10/16 12:16:48;;;;;;;;;0.00;0.00;;;;;11.55;76.66;102264.47;5022816;28;9702;-66
2023/10/16 12:19:17;;;;;;;;;1.00;1.00;;;;;11.62;75.03;102258.22;4992667;28;9805;-67
2023/10/16 12:21:47;;;;;;;;;0.00;0.00;;;;;11.65;74.97;102251.66;5015844;28;9733;-67
2023/10/16 12:24:16;;;;;;;;;1.00;1.00;;;;;11.58;74.73;102256.03;4987990;28;9685;-67
2023/10/16 12:26:43;;;;;;;;;0.00;0.00;;;;;11.64;73.70;102255.38;4988394;28;9784;-67
2023/10/16 12:29:11;;;;;;;;;0.00;0.00;;;;;11.67;73.55;102254.19;5009324;28;9700;-66
2023/10/16 12:31:40;;;;;;;;;0.00;0.00;;;;;11.72;74.45;102257.25;5007733;28;9731;-68
2023/10/16 12:34:11;;;;;;;;;0.00;0.00;;;;;11.70;74.44;102251.16;5001984;28;9680;-66
2023/10/16 12:36:38;;;;;;;;;0.00;0.00;;;;;11.76;74.87;102251.34;5000970;28;10568;-66
2023/10/16 12:39:13;;;;;;;;;0.00;0.00;;;;;11.79;74.70;102251.00;5009828;28;9664;-66
2023/10/16 12:41:41;;;;;;;;;0.00;0.00;;;;;11.79;74.46;102252.88;5020174;28;9623;-69
2023/10/16 12:44:09;;;;;;;;;0.25;0.00;;;;;11.81;74.30;102254.38;5030270;28;9636;-66
2023/10/16 12:46:43;;;;;;;;;0.00;0.00;;;;;11.83;74.57;102247.00;5029954;28;9961;-66
2023/10/16 12:49:09;;;;;;;;;0.00;0.00;;;;;11.78;73.75;102238.50;5012636;28;10813;-66
2023/10/16 12:51:38;;;;;;;;;0.00;0.00;;;;;11.78;71.88;102237.69;5012686;28;9617;-67
2023/10/16 12:54:06;;;;;;;;;0.00;0.00;;;;;11.72;71.45;102239.19;5030397;28;9797;-67
2023/10/16 12:56:35;;;;;;;;;0.00;0.00;;;;;11.69;71.71;102236.00;5029336;28;9675;-67
2023/10/16 12:59:03;;;;;;;;;1.00;0.00;;;;;11.69;72.48;102234.13;5029862;28;9676;-67
2023/10/16 13:01:30;;;;;;;;;0.00;0.00;;;;;11.73;72.41;102234.66;5029099;28;10409;-67
2023/10/16 13:03:59;;;;;;;;;0.00;0.00;;;;;11.69;71.84;102230.59;5003122;28;9711;-67
2023/10/16 13:06:30;;;;;;;;;0.00;0.00;;;;;11.72;72.07;102238.38;5011479;28;9794;-67
2023/10/16 13:08:57;;;;;;;;;1.25;0.00;;;;;11.74;71.81;102226.38;5009747;28;9649;-67
2023/10/16 13:11:24;;;;;;;;;0.00;0.00;;;;;11.74;70.60;102230.94;5009797;28;9699;-67
2023/10/16 13:13:52;;;;;;;;;0.00;0.00;;;;;11.74;70.53;102230.94;5009009;28;9946;-66
2023/10/16 13:16:24;;;;;;;;;1.75;0.00;;;;;11.75;71.12;102229.91;5008486;28;9774;-66
2023/10/16 13:18:57;;;;;;;;;0.00;0.00;;;;;11.77;71.10;102231.44;5010148;28;9696;-66
2023/10/16 13:21:33;;;;;;;;;0.00;0.00;;;;;11.76;70.50;102223.53;4980188;28;9708;-67
2023/10/16 13:24:12;;;;;;;;;0.00;0.00;;;;;11.80;71.13;102230.28;5010098;28;9683;-67
2023/10/16 13:26:40;;;;;;;;;0.25;0.00;;;;;11.83;71.08;102220.03;5009602;28;9864;-68
2023/10/16 13:29:09;;;;;;;;;0.00;0.00;;;;;11.85;71.27;102217.97;5010701;28;9820;-66
2023/10/16 13:31:37;;;;;;;;;0.00;0.00;;;;;11.82;69.93;102222.84;5004610;28;9703;-67
2023/10/16 13:34:04;;;;;;;;;1.00;0.00;;;;;11.81;69.42;102215.75;4983280;28;9704;-66
2023/10/16 13:36:35;;;;;;;;;0.25;0.25;;;;;11.86;68.35;102222.38;5011172;28;9621;-67